Time;durP1;ratioP1;P1;durP2;ratioP2;P2;SDS_P1;SDS_P2;PMS_P1;PMS_P2;Temp;Humidity;BMP_temperature;BMP_pressure;BME280_temperature;BME280_humidity;BME280_pressure;Samples;Min_cycle;Max_cycle;Signal;HPM_P1;HPM_P2
2022/01/26 00:07:31;;;;;;;10.55;9.45;;;16.10;59.30;;;;;;4955905;28;19926;-20
2022/01/26 00:09:57;;;;;;;11.00;8.73;;;16.10;59.50;;;;;;4939694;28;20051;-22
2022/01/26 00:12:22;;;;;;;10.98;9.25;;;16.10;59.40;;;;;;4938106;28;20044;-21
2022/01/26 00:14:48;;;;;;;10.73;8.30;;;16.00;59.40;;;;;;4938589;28;20050;-21
2022/01/26 00:17:14;;;;;;;11.60;8.93;;;16.00;59.60;;;;;;4938774;28;20044;-21
2022/01/26 00:19:51;;;;;;;9.75;8.32;;;16.00;59.50;;;;;;4938912;28;20052;-21
2022/01/26 00:22:36;;;;;;;11.15;8.60;;;16.00;59.40;;;;;;4939287;28;20039;-21
2022/01/26 00:27:54;;;;;;;9.63;8.63;;;16.00;59.50;;;;;;4950570;28;20094;-22
2022/01/26 00:41:05;;;;;;;9.40;8.40;;;16.00;59.40;;;;;;4943581;28;20131;-22
2022/01/26 00:43:30;;;;;;;9.40;7.90;;;16.00;59.40;;;;;;4937888;28;20465;-21
2022/01/26 00:45:57;;;;;;;8.63;7.32;;;16.00;59.50;;;;;;4946541;28;20070;-21
2022/01/26 00:48:24;;;;;;;24.13;16.42;;;16.10;59.50;;;;;;4950024;28;20106;-21
2022/01/26 00:50:52;;;;;;;16.70;12.90;;;16.00;59.20;;;;;;4951688;28;20047;-21
2022/01/26 00:53:24;;;;;;;14.85;12.10;;;16.00;59.40;;;;;;4956809;28;20489;-23
2022/01/26 00:55:49;;;;;;;14.43;11.65;;;16.00;59.50;;;;;;4957325;28;20039;-20
2022/01/26 00:58:15;;;;;;;16.45;11.93;;;16.00;59.60;;;;;;4950450;28;20047;-21
2022/01/26 01:00:41;;;;;;;17.35;13.30;;;15.90;59.50;;;;;;4957761;28;20089;-22
2022/01/26 01:03:06;;;;;;;16.42;11.98;;;15.90;59.60;;;;;;4958021;28;20130;-23
2022/01/26 01:05:41;;;;;;;13.98;11.05;;;15.90;59.60;;;;;;4939081;28;20043;-22
2022/01/26 01:08:15;;;;;;;14.63;11.02;;;15.90;59.50;;;;;;4943866;28;20042;-22
2022/01/26 01:10:43;;;;;;;13.45;10.75;;;15.90;59.50;;;;;;4956153;28;20055;-22
2022/01/26 01:13:15;;;;;;;13.13;10.50;;;15.90;59.60;;;;;;4956994;28;20046;-22
2022/01/26 01:15:40;;;;;;;13.68;10.25;;;15.90;59.50;;;;;;4956799;28;20043;-21
2022/01/26 01:18:27;;;;;;;14.25;10.95;;;15.90;59.50;;;;;;4957159;28;20043;-22
2022/01/26 01:29:10;;;;;;;12.82;9.82;;;15.90;59.50;;;;;;4939500;28;20055;-23
2022/01/26 01:31:49;;;;;;;11.30;9.50;;;15.90;59.50;;;;;;4937704;28;20118;-22
2022/01/26 01:34:17;;;;;;;11.45;9.27;;;15.90;59.50;;;;;;4937434;28;20280;-22
2022/01/26 01:36:45;;;;;;;11.20;9.20;;;15.80;59.40;;;;;;4940353;28;20055;-22
2022/01/26 01:39:11;;;;;;;12.90;9.77;;;15.90;59.50;;;;;;4955529;28;20437;-20
2022/01/26 01:41:38;;;;;;;11.68;9.65;;;15.80;59.40;;;;;;4955921;28;20074;-19
2022/01/26 01:44:05;;;;;;;12.88;10.18;;;15.90;59.40;;;;;;4945199;28;20410;-19
2022/01/26 01:46:31;;;;;;;10.48;8.85;;;15.90;59.40;;;;;;4939679;28;20056;-19
2022/01/26 01:48:57;;;;;;;11.73;9.50;;;15.80;59.40;;;;;;4946824;28;20047;-19
2022/01/26 01:51:29;;;;;;;9.90;8.85;;;15.90;59.40;;;;;;4955939;28;20659;-19
2022/01/26 01:53:55;;;;;;;10.40;8.75;;;15.80;59.30;;;;;;4956182;28;20043;-20
2022/01/26 01:56:25;;;;;;;10.05;8.95;;;15.90;59.40;;;;;;4955646;28;20049;-20
2022/01/26 01:58:53;;;;;;;12.68;9.50;;;15.90;59.40;;;;;;4956910;28;20070;-19
2022/01/26 02:01:20;;;;;;;9.75;8.25;;;15.80;59.40;;;;;;4949115;28;20062;-19
2022/01/26 02:03:45;;;;;;;12.05;9.48;;;15.90;59.40;;;;;;4956981;28;20519;-20
2022/01/26 02:06:11;;;;;;;8.90;8.00;;;15.90;59.40;;;;;;4956107;28;20412;-19
2022/01/26 02:08:37;;;;;;;8.95;8.02;;;15.80;59.30;;;;;;4951301;28;20047;-19
2022/01/26 02:11:05;;;;;;;9.40;8.38;;;15.80;59.30;;;;;;4955081;28;20051;-19
2022/01/26 02:13:39;;;;;;;8.70;7.80;;;15.80;59.30;;;;;;4956042;28;20102;-19
2022/01/26 02:16:17;;;;;;;8.93;7.40;;;15.80;59.30;;;;;;4956072;28;20126;-19
2022/01/26 02:56:59;;;;;;;8.02;7.22;;;15.80;59.20;;;;;;4949850;28;20075;-20
2022/01/26 03:02:04;;;;;;;7.32;6.63;;;15.70;59.30;;;;;;4958926;28;20085;-18
2022/01/26 03:04:48;;;;;;;7.10;6.43;;;15.80;59.30;;;;;;4958866;28;20047;-17
2022/01/26 03:07:24;;;;;;;7.57;6.78;;;15.80;59.20;;;;;;4959224;28;20055;-18
2022/01/26 03:10:03;;;;;;;7.35;6.65;;;15.80;59.30;;;;;;4950868;28;20039;-19
2022/01/26 03:13:17;;;;;;;6.63;6.03;;;15.80;59.30;;;;;;4940046;28;20398;-20
2022/01/26 03:15:32;;;;;;;8.82;6.13;;;15.80;59.30;;;;;;4948050;28;20043;-19
2022/01/26 03:20:28;;;;;;;5.50;5.10;;;15.80;59.30;;;;;;4954727;28;20074;-20
2022/01/26 03:28:36;;;;;;;6.05;5.45;;;15.80;59.30;;;;;;4958268;28;20043;-18
2022/01/26 03:32:08;;;;;;;6.07;5.57;;;15.80;59.30;;;;;;4951836;28;20062;-19
2022/01/26 03:34:10;;;;;;;5.35;4.93;;;15.80;59.30;;;;;;4957900;28;20043;-19
2022/01/26 03:36:46;;;;;;;;;;;15.80;59.30;;;;;;4953395;28;20087;-18
2022/01/26 03:39:14;;;;;;;6.18;5.57;;;15.80;59.30;;;;;;4940084;28;19914;-19
2022/01/26 03:44:06;;;;;;;5.60;5.10;;;15.70;59.30;;;;;;4940005;28;20150;-19
2022/01/26 03:46:32;;;;;;;6.32;5.72;;;15.80;59.40;;;;;;4939541;28;20095;-18
2022/01/26 03:48:57;;;;;;;5.90;5.40;;;15.70;59.90;;;;;;4950024;28;20051;-19
2022/01/26 03:51:23;;;;;;;5.88;5.35;;;15.70;59.30;;;;;;4958075;28;20047;-19
2022/01/26 03:53:48;;;;;;;5.88;5.28;;;15.70;59.30;;;;;;4939603;28;20103;-19
2022/01/26 03:56:14;;;;;;;5.90;5.30;;;15.70;59.30;;;;;;4945478;28;20039;-19
2022/01/26 03:58:40;;;;;;;5.57;5.10;;;15.70;59.30;;;;;;4955869;28;20054;-19
2022/01/26 04:01:05;;;;;;;5.05;4.65;;;15.70;59.30;;;;;;4939915;28;20524;-20
2022/01/26 04:03:31;;;;;;;5.28;4.88;;;15.70;59.30;;;;;;4947651;28;20701;-19
2022/01/26 04:05:57;;;;;;;5.72;5.22;;;15.70;59.30;;;;;;4950440;28;20050;-19
2022/01/26 04:08:27;;;;;;;5.50;5.00;;;15.70;59.30;;;;;;4943812;28;20051;-19
2022/01/26 04:11:29;;;;;;;5.03;4.63;;;15.70;59.30;;;;;;4946782;28;20067;-18
2022/01/26 04:13:56;;;;;;;5.35;4.85;;;15.70;59.30;;;;;;4955496;28;20055;-19
2022/01/26 04:16:22;;;;;;;5.15;4.75;;;15.70;59.30;;;;;;4944569;28;20047;-18
2022/01/26 04:18:48;;;;;;;4.97;4.57;;;15.70;59.30;;;;;;4948028;28;20542;-20
2022/01/26 04:21:27;;;;;;;4.95;4.55;;;15.70;59.30;;;;;;4944718;28;20464;-19
2022/01/26 04:23:58;;;;;;;5.20;4.80;;;15.70;59.30;;;;;;4952035;28;20082;-18
2022/01/26 04:26:41;;;;;;;4.80;4.43;;;15.70;59.30;;;;;;4957929;28;20408;-19
2022/01/26 04:29:08;;;;;;;5.00;4.60;;;15.70;59.30;;;;;;4948239;28;20043;-18
2022/01/26 04:31:34;;;;;;;4.65;4.30;;;15.70;59.20;;;;;;4958011;28;20050;-18
2022/01/26 04:33:59;;;;;;;4.68;4.38;;;15.70;59.20;;;;;;4957896;28;20047;-19
2022/01/26 04:36:32;;;;;;;4.88;4.55;;;15.70;59.20;;;;;;4955013;28;20083;-19
2022/01/26 04:39:01;;;;;;;4.75;4.30;;;15.70;59.20;;;;;;4945881;28;20528;-20
2022/01/26 04:41:39;;;;;;;5.05;4.65;;;15.70;59.20;;;;;;4944559;28;20106;-18
2022/01/26 04:44:11;;;;;;;4.72;4.38;;;15.70;59.20;;;;;;4938126;28;20523;-18
2022/01/26 04:46:37;;;;;;;4.60;4.20;;;15.70;59.20;;;;;;4938561;28;20044;-19
2022/01/26 04:49:03;;;;;;;4.82;4.43;;;15.70;59.30;;;;;;4948494;28;20051;-18
2022/01/26 04:51:28;;;;;;;5.47;4.97;;;15.60;59.10;;;;;;4942393;28;20044;-19
2022/01/26 04:53:54;;;;;;;4.38;4.03;;;15.60;59.70;;;;;;4938690;28;20040;-20
2022/01/26 04:56:19;;;;;;;4.55;4.25;;;15.70;59.20;;;;;;4944987;28;20049;-18
2022/01/26 04:58:45;;;;;;;4.60;4.20;;;15.70;59.20;;;;;;4939934;28;20502;-18
2022/01/26 05:01:11;;;;;;;4.70;4.30;;;15.70;59.10;;;;;;4939052;28;20047;-19
2022/01/26 05:03:36;;;;;;;4.88;4.55;;;15.70;59.10;;;;;;4949155;28;20044;-19
2022/01/26 05:06:02;;;;;;;4.40;4.10;;;15.70;59.20;;;;;;4942147;28;20106;-20
2022/01/26 05:08:28;;;;;;;4.40;4.10;;;15.60;59.10;;;;;;4938469;28;20051;-18
2022/01/26 05:10:53;;;;;;;4.57;4.18;;;15.70;59.10;;;;;;4939152;28;20047;-18
2022/01/26 05:13:19;;;;;;;4.30;4.00;;;15.60;59.00;;;;;;4938785;28;20062;-18
2022/01/26 05:15:45;;;;;;;4.47;4.18;;;15.60;59.00;;;;;;4938390;28;20067;-19
2022/01/26 05:18:11;;;;;;;4.43;4.13;;;15.60;59.10;;;;;;4948181;28;20047;-18
2022/01/26 05:20:36;;;;;;;4.13;3.83;;;15.60;59.10;;;;;;4956696;28;20067;-18
2022/01/26 05:23:02;;;;;;;3.47;3.28;;;15.60;59.10;;;;;;4957422;28;20102;-18
2022/01/26 05:25:28;;;;;;;4.65;4.25;;;15.60;59.10;;;;;;4941687;28;20102;-18
2022/01/26 05:27:53;;;;;;;4.13;3.83;;;15.60;59.10;;;;;;4938493;28;20043;-19
2022/01/26 05:30:19;;;;;;;4.25;3.95;;;15.60;59.10;;;;;;4938600;28;20127;-20
2022/01/26 05:32:44;;;;;;;4.32;3.97;;;15.60;59.10;;;;;;4954799;28;20050;-20
2022/01/26 05:35:10;;;;;;;4.18;3.88;;;15.60;59.00;;;;;;4947686;28;20048;-20
2022/01/26 05:37:36;;;;;;;3.67;3.47;;;15.60;59.10;;;;;;4937973;28;20068;-18
2022/01/26 05:40:03;;;;;;;3.75;3.55;;;15.60;59.00;;;;;;4938452;28;20044;-18
2022/01/26 05:42:29;;;;;;;4.30;4.00;;;15.60;59.10;;;;;;4938160;28;20054;-20
2022/01/26 05:45:00;;;;;;;3.58;3.30;;;15.60;59.00;;;;;;4938524;28;20040;-20
2022/01/26 05:47:25;;;;;;;3.33;3.13;;;15.60;59.00;;;;;;4955572;28;20047;-18
2022/01/26 05:49:51;;;;;;;3.75;3.45;;;15.60;59.00;;;;;;4956776;28;20456;-19
2022/01/26 05:52:16;;;;;;;4.20;3.90;;;15.60;59.00;;;;;;4957331;28;20042;-18
2022/01/26 05:54:42;;;;;;;3.72;3.40;;;15.50;59.00;;;;;;4955958;28;20054;-19
2022/01/26 05:57:08;;;;;;;3.97;3.67;;;15.60;59.00;;;;;;4944278;28;20094;-18
2022/01/26 05:59:33;;;;;;;3.67;3.40;;;15.60;59.00;;;;;;4937424;28;20047;-19
2022/01/26 06:01:59;;;;;;;3.70;3.50;;;15.60;59.00;;;;;;4952472;28;20489;-19
2022/01/26 06:04:24;;;;;;;3.70;3.50;;;15.60;59.00;;;;;;4949736;28;20051;-19
2022/01/26 06:06:50;;;;;;;3.78;3.58;;;15.60;58.90;;;;;;4954802;28;20110;-19
2022/01/26 06:09:16;;;;;;;4.43;4.13;;;15.70;59.40;;;;;;4956180;28;20058;-21
2022/01/26 06:11:41;;;;;;;7.10;5.18;;;15.70;59.90;;;;;;4956131;28;20461;-22
2022/01/26 06:14:07;;;;;;;8.50;7.47;;;15.70;60.40;;;;;;4956565;28;20126;-21
2022/01/26 06:16:32;;;;;;;8.20;7.28;;;15.70;60.70;;;;;;4948059;28;20663;-21
2022/01/26 06:18:58;;;;;;;11.68;7.75;;;15.70;60.60;;;;;;4946064;28;20102;-22
2022/01/26 06:21:24;;;;;;;9.57;8.40;;;15.70;60.70;;;;;;4950734;28;20058;-21
2022/01/26 06:23:49;;;;;;;9.15;7.25;;;15.70;60.60;;;;;;4954211;28;20055;-21
2022/01/26 06:26:15;;;;;;;11.55;8.07;;;15.70;60.70;;;;;;4609351;28;10000088;-21
2022/01/26 06:28:40;;;;;;;11.52;8.20;;;15.70;60.70;;;;;;4952862;28;20051;-21
2022/01/26 06:31:11;;;;;;;10.27;8.30;;;15.70;60.50;;;;;;4952386;28;20058;-21
2022/01/26 06:33:39;;;;;;;9.90;7.47;;;15.80;60.50;;;;;;4944335;28;20036;-21
2022/01/26 06:36:05;;;;;;;10.57;7.25;;;15.70;60.30;;;;;;4951989;28;20134;-19
2022/01/26 06:38:30;;;;;;;10.35;7.28;;;15.70;60.30;;;;;;4952648;28;20118;-19
2022/01/26 06:40:57;;;;;;;11.40;7.57;;;15.80;60.40;;;;;;4941550;28;20047;-18
2022/01/26 06:43:24;;;;;;;8.68;7.28;;;15.80;62.00;;;;;;4948341;28;20055;-18
2022/01/26 06:45:55;;;;;;;15.13;7.72;;;15.80;61.70;;;;;;4952744;28;20051;-18
2022/01/26 06:51:04;;;;;;;9.65;6.72;;;15.90;61.10;;;;;;4937411;28;20115;-18
2022/01/26 06:53:30;;;;;;;13.38;6.50;;;16.00;61.90;;;;;;4937616;28;20040;-19
2022/01/26 06:55:56;;;;;;;11.07;5.93;;;16.00;61.80;;;;;;4940631;28;20959;-18
2022/01/26 06:58:22;;;;;;;7.93;6.40;;;16.00;61.40;;;;;;4956820;28;20075;-21
2022/01/26 07:00:48;;;;;;;8.40;6.72;;;16.00;61.30;;;;;;4956383;28;20051;-21
2022/01/26 07:03:14;;;;;;;7.65;6.60;;;16.00;61.10;;;;;;4953794;28;20094;-22
2022/01/26 07:05:40;;;;;;;6.57;5.68;;;16.00;61.00;;;;;;4938033;28;20048;-22
2022/01/26 07:08:06;;;;;;;7.60;6.00;;;16.00;60.80;;;;;;4941328;28;20409;-21
2022/01/26 07:10:32;;;;;;;6.82;6.15;;;16.00;60.50;;;;;;4940798;28;20048;-22
2022/01/26 07:12:58;;;;;;;8.73;5.60;;;16.10;60.40;;;;;;4939905;28;20040;-22
2022/01/26 07:23:22;;;;;;;5.63;5.13;;;16.00;60.10;;;;;;4940328;28;20044;-23
2022/01/26 07:25:48;;;;;;;6.25;5.60;;;16.00;59.90;;;;;;4939924;28;20134;-21
2022/01/26 07:28:13;;;;;;;5.95;5.43;;;16.00;60.00;;;;;;4940582;28;20044;-21
2022/01/26 07:30:39;;;;;;;7.50;5.65;;;16.00;59.90;;;;;;4940323;28;20036;-19
2022/01/26 07:33:05;;;;;;;5.85;5.30;;;16.10;59.90;;;;;;4940008;28;20050;-20
2022/01/26 07:35:31;;;;;;;12.77;5.75;;;16.10;59.80;;;;;;4940167;28;20505;-21
2022/01/26 07:38:02;;;;;;;7.43;5.15;;;16.10;59.60;;;;;;4939256;28;20405;-21
2022/01/26 07:40:28;;;;;;;5.65;4.88;;;16.10;59.60;;;;;;4939880;28;20058;-19
2022/01/26 07:42:53;;;;;;;5.63;4.65;;;16.10;59.60;;;;;;4942965;28;20520;-19
2022/01/26 07:45:19;;;;;;;9.65;5.43;;;16.10;59.70;;;;;;4945832;28;20420;-22
2022/01/26 07:47:46;;;;;;;5.65;5.05;;;16.10;59.60;;;;;;4947853;28;20050;-22
2022/01/26 07:50:14;;;;;;;5.88;5.30;;;16.10;59.50;;;;;;4959518;28;20044;-20
2022/01/26 07:52:41;;;;;;;6.00;5.40;;;16.10;59.60;;;;;;4958422;28;20043;-20
2022/01/26 07:55:08;;;;;;;5.65;5.10;;;16.10;59.60;;;;;;4959134;28;20069;-20
2022/01/26 07:57:34;;;;;;;7.00;5.20;;;16.00;59.60;;;;;;4955058;28;21183;-19
2022/01/26 07:59:59;;;;;;;5.50;5.00;;;16.00;59.70;;;;;;4954475;28;20055;-20
2022/01/26 08:02:25;;;;;;;5.55;5.05;;;16.00;59.70;;;;;;4940266;28;20116;-20
2022/01/26 08:04:50;;;;;;;4.97;4.57;;;16.00;60.50;;;;;;4939634;28;20054;-19
2022/01/26 08:07:16;;;;;;;5.85;5.40;;;16.10;59.70;;;;;;4942691;28;20413;-20
2022/01/26 08:09:44;;;;;;;5.70;5.20;;;16.10;59.70;;;;;;4946617;28;20058;-19
2022/01/26 08:12:11;;;;;;;6.40;4.75;;;16.10;59.60;;;;;;4952003;28;20134;-20
2022/01/26 08:14:36;;;;;;;5.40;4.90;;;16.00;59.60;;;;;;4977596;28;20046;-20
2022/01/26 08:17:03;;;;;;;4.93;4.53;;;16.00;59.60;;;;;;4977581;28;20554;-20
2022/01/26 08:19:28;;;;;;;5.68;5.18;;;16.00;59.60;;;;;;4958780;28;20051;-21
2022/01/26 08:21:59;;;;;;;5.07;4.68;;;16.00;59.50;;;;;;4939502;28;20047;-21
2022/01/26 08:24:25;;;;;;;5.53;5.03;;;16.00;59.60;;;;;;4939502;28;20074;-19
2022/01/26 08:26:50;;;;;;;6.57;5.72;;;16.10;59.60;;;;;;4938890;28;20054;-20
2022/01/26 08:29:22;;;;;;;5.57;5.07;;;16.10;59.60;;;;;;4939397;28;20047;-21
2022/01/26 08:31:47;;;;;;;5.78;5.38;;;16.10;59.70;;;;;;4939073;28;20039;-21
2022/01/26 08:34:13;;;;;;;5.50;5.00;;;16.10;59.60;;;;;;4939354;28;20138;-21
2022/01/26 08:36:38;;;;;;;5.88;5.38;;;16.10;59.60;;;;;;4942483;28;20047;-21
2022/01/26 08:39:04;;;;;;;5.50;5.00;;;16.10;59.60;;;;;;4958667;28;20051;-20
2022/01/26 08:41:30;;;;;;;5.55;5.18;;;16.10;59.50;;;;;;4958346;28;20106;-20
2022/01/26 08:43:55;;;;;;;5.43;5.03;;;16.20;59.60;;;;;;4957598;28;20381;-22
2022/01/26 08:46:21;;;;;;;5.82;4.93;;;16.20;59.60;;;;;;4947125;28;20075;-21
2022/01/26 08:48:47;;;;;;;4.85;4.53;;;16.10;59.60;;;;;;4946270;28;20039;-20
2022/01/26 08:51:14;;;;;;;4.95;4.57;;;16.20;59.70;;;;;;4946099;28;20043;-22
2022/01/26 08:53:39;;;;;;;4.93;4.63;;;16.20;59.70;;;;;;4942115;28;20047;-21
2022/01/26 08:56:05;;;;;;;4.82;4.43;;;16.20;59.50;;;;;;4952109;28;20134;-22
2022/01/26 08:58:30;;;;;;;5.40;5.00;;;16.20;59.60;;;;;;4957994;28;20039;-21
2022/01/26 09:00:56;;;;;;;4.90;4.50;;;16.20;60.30;;;;;;4945259;28;20044;-21
2022/01/26 09:03:22;;;;;;;5.70;5.00;;;16.20;59.50;;;;;;4939062;28;20050;-20
2022/01/26 09:05:47;;;;;;;4.85;4.40;;;16.20;59.60;;;;;;4938205;28;20047;-21
2022/01/26 09:08:13;;;;;;;4.72;4.40;;;16.20;59.60;;;;;;4947844;28;20087;-21
2022/01/26 09:10:40;;;;;;;4.82;4.43;;;16.10;59.60;;;;;;4938350;28;20054;-21
2022/01/26 09:13:06;;;;;;;5.50;4.32;;;16.20;59.70;;;;;;4938126;28;20051;-21
2022/01/26 09:15:32;;;;;;;4.88;4.50;;;16.20;60.00;;;;;;4939019;28;20044;-19
2022/01/26 09:18:00;;;;;;;5.82;4.68;;;16.20;60.10;;;;;;4938204;28;20501;-21
2022/01/26 09:20:26;;;;;;;5.60;4.95;;;16.20;59.70;;;;;;4938733;28;20063;-21
2022/01/26 09:22:52;;;;;;;6.07;4.90;;;16.20;59.60;;;;;;4938840;28;20059;-19
2022/01/26 09:25:17;;;;;;;5.32;4.82;;;16.20;59.50;;;;;;4938360;28;20047;-20
2022/01/26 09:27:43;;;;;;;6.13;5.47;;;16.20;59.60;;;;;;4937953;28;20047;-20
2022/01/26 09:30:09;;;;;;;5.63;5.13;;;16.20;59.70;;;;;;4941686;28;20051;-22
2022/01/26 09:32:36;;;;;;;6.15;5.65;;;16.30;59.60;;;;;;4938633;28;20055;-19
2022/01/26 09:35:01;;;;;;;6.22;5.72;;;16.20;59.40;;;;;;4937585;28;20064;-19
2022/01/26 09:37:27;;;;;;;6.43;5.93;;;16.20;59.50;;;;;;4938748;28;20142;-19
2022/01/26 09:39:54;;;;;;;5.57;5.07;;;16.20;59.80;;;;;;4937835;28;20047;-19
2022/01/26 09:42:20;;;;;;;6.00;5.50;;;16.20;59.80;;;;;;4938627;28;20052;-20
2022/01/26 09:44:45;;;;;;;6.15;5.65;;;16.20;59.50;;;;;;4937502;28;20103;-19
2022/01/26 09:47:11;;;;;;;5.38;4.97;;;16.20;59.70;;;;;;4938143;28;20054;-22
2022/01/26 09:49:37;;;;;;;5.70;5.20;;;16.20;59.70;;;;;;4952636;28;20125;-20
2022/01/26 09:52:15;;;;;;;5.28;4.85;;;16.20;59.60;;;;;;4949500;28;20731;-21
2022/01/26 09:54:41;;;;;;;5.70;5.20;;;16.20;59.80;;;;;;4938112;28;20047;-19
2022/01/26 09:57:07;;;;;;;5.63;5.22;;;16.20;59.80;;;;;;4949887;28;20666;-18
2022/01/26 09:59:33;;;;;;;5.53;5.13;;;16.20;59.70;;;;;;4956171;28;20567;-18
2022/01/26 10:01:58;;;;;;;5.32;4.95;;;16.20;59.70;;;;;;4943796;28;20135;-19
2022/01/26 10:04:34;;;;;;;5.30;4.90;;;16.20;59.70;;;;;;4940177;28;20164;-18
2022/01/26 10:08:08;;;;;;;5.28;4.78;;;16.20;59.70;;;;;;4955346;28;20074;-18
2022/01/26 10:10:17;;;;;;;5.85;5.32;;;16.20;59.50;;;;;;4940048;28;20429;-18
2022/01/26 10:15:39;;;;;;;5.47;5.07;;;16.20;59.50;;;;;;4937200;28;20063;-18
2022/01/26 10:18:12;;;;;;;5.60;5.10;;;16.20;59.50;;;;;;4956221;28;20054;-19
2022/01/26 10:20:38;;;;;;;5.35;4.95;;;16.20;59.50;;;;;;4965516;28;20050;-19
2022/01/26 10:23:09;;;;;;;5.75;5.25;;;16.20;59.50;;;;;;4939323;28;20056;-18
2022/01/26 10:25:34;;;;;;;6.50;4.90;;;16.30;59.60;;;;;;4950061;28;20047;-19
2022/01/26 10:28:00;;;;;;;5.63;5.22;;;16.30;59.50;;;;;;4945684;28;20061;-18
2022/01/26 10:30:25;;;;;;;5.75;5.10;;;16.30;59.60;;;;;;4937816;28;20572;-19
2022/01/26 10:32:51;;;;;;;5.45;5.05;;;16.30;59.30;;;;;;4941781;28;20599;-19
2022/01/26 10:35:17;;;;;;;5.40;5.00;;;16.30;59.50;;;;;;4956494;28;20044;-19
2022/01/26 10:37:55;;;;;;;5.15;4.75;;;16.30;59.20;;;;;;4944979;28;20079;-19
2022/01/26 10:40:24;;;;;;;5.18;4.78;;;16.30;59.30;;;;;;4936040;28;20051;-19
2022/01/26 10:43:00;;;;;;;5.15;4.75;;;16.30;59.20;;;;;;4939594;28;20135;-19
2022/01/26 10:45:57;;;;;;;5.05;4.68;;;16.30;59.20;;;;;;4941671;28;20497;-19
2022/01/26 10:53:39;;;;;;;4.72;4.30;;;16.20;59.20;;;;;;4941345;28;20555;-20
2022/01/26 10:56:05;;;;;;;4.82;4.38;;;16.30;59.10;;;;;;4945722;28;20043;-19
2022/01/26 10:58:31;;;;;;;5.75;5.25;;;16.30;59.10;;;;;;4960396;28;21209;-19
2022/01/26 11:00:57;;;;;;;5.25;4.55;;;16.30;59.10;;;;;;4945900;28;20048;-19
2022/01/26 11:03:22;;;;;;;5.43;5.03;;;16.20;59.00;;;;;;4941256;28;20044;-19
2022/01/26 11:05:48;;;;;;;5.72;5.18;;;16.30;59.00;;;;;;4939176;28;20063;-19
2022/01/26 11:08:14;;;;;;;4.88;4.47;;;16.30;59.10;;;;;;4942252;28;20031;-19
2022/01/26 11:10:39;;;;;;;4.63;4.22;;;16.30;59.10;;;;;;4955666;28;20043;-20
2022/01/26 11:13:05;;;;;;;4.97;4.57;;;16.30;59.10;;;;;;4940435;28;23191;-19
2022/01/26 11:15:31;;;;;;;4.90;4.50;;;16.20;59.00;;;;;;4951232;28;20039;-19
2022/01/26 11:18:09;;;;;;;4.15;3.85;;;16.20;58.90;;;;;;4959280;28;20049;-19
2022/01/26 11:20:48;;;;;;;4.38;3.90;;;16.30;59.10;;;;;;4959955;28;20050;-20
2022/01/26 11:23:13;;;;;;;4.43;4.03;;;16.20;58.90;;;;;;4955689;28;20054;-19
2022/01/26 11:25:44;;;;;;;4.07;3.78;;;16.20;58.80;;;;;;4959062;28;20047;-20
2022/01/26 11:28:22;;;;;;;5.28;4.75;;;16.30;59.00;;;;;;4956874;28;20061;-20
2022/01/26 11:30:48;;;;;;;5.20;4.80;;;16.20;59.10;;;;;;4951925;28;20036;-21
2022/01/26 11:33:23;;;;;;;5.53;5.13;;;16.20;59.00;;;;;;4952519;28;20058;-20
2022/01/26 11:35:49;;;;;;;;;;;16.20;58.90;;;;;;4958795;28;20138;-19
2022/01/26 11:46:58;;;;;;;6.75;5.28;;;16.20;59.40;;;;;;4609017;28;10001549;-19
2022/01/26 11:49:26;;;;;;;6.28;5.68;;;16.30;59.40;;;;;;4953076;28;20055;-19
2022/01/26 11:51:55;;;;;;;6.90;6.20;;;16.20;59.40;;;;;;4959385;28;20070;-20
2022/01/26 11:54:25;;;;;;;6.80;6.00;;;16.20;59.50;;;;;;4958644;28;20047;-20
2022/01/26 11:56:55;;;;;;;5.97;5.47;;;16.20;59.60;;;;;;4950771;28;20055;-21
2022/01/26 11:59:23;;;;;;;6.95;5.95;;;16.20;59.60;;;;;;4955016;28;20054;-20
2022/01/26 12:01:56;;;;;;;7.40;6.20;;;16.30;59.60;;;;;;4952184;28;20468;-19
2022/01/26 12:04:24;;;;;;;6.55;5.88;;;16.30;59.60;;;;;;4959458;28;20599;-19
2022/01/26 12:06:57;;;;;;;9.35;5.88;;;16.20;59.70;;;;;;4956105;28;20130;-18
2022/01/26 12:09:23;;;;;;;6.85;6.22;;;16.30;59.80;;;;;;4954956;28;20132;-19
2022/01/26 12:11:55;;;;;;;9.75;6.60;;;16.30;59.70;;;;;;4954791;28;20539;-19
2022/01/26 12:14:21;;;;;;;8.95;5.93;;;16.20;59.80;;;;;;4954476;28;20082;-18
2022/01/26 12:16:50;;;;;;;8.20;5.75;;;16.30;60.50;;;;;;4955082;28;20051;-18
2022/01/26 12:19:40;;;;;;;6.80;6.18;;;16.30;59.80;;;;;;4950416;28;20058;-19
2022/01/26 12:36:01;;;;;;;6.35;5.50;;;16.40;59.40;;;;;;4945417;28;20052;-19
2022/01/26 12:38:40;;;;;;;6.63;5.90;;;16.40;59.30;;;;;;4957181;28;20047;-18
2022/01/26 12:41:54;;;;;;;7.45;5.93;;;16.40;59.30;;;;;;4957567;28;20106;-19
2022/01/26 12:43:57;;;;;;;5.95;5.45;;;16.40;59.20;;;;;;4952726;28;20044;-19
2022/01/26 12:46:28;;;;;;;5.57;5.07;;;16.40;59.10;;;;;;4939783;28;20054;-20
2022/01/26 12:48:54;;;;;;;6.07;5.38;;;16.40;59.00;;;;;;4957110;28;20044;-20
2022/01/26 12:51:20;;;;;;;6.05;5.45;;;16.40;59.00;;;;;;4947244;28;20051;-19
2022/01/26 12:53:55;;;;;;;5.40;4.90;;;16.40;59.00;;;;;;4956987;28;20889;-20
2022/01/26 12:56:23;;;;;;;5.40;5.00;;;16.50;59.00;;;;;;4953548;28;20074;-20
2022/01/26 12:59:00;;;;;;;7.50;5.50;;;16.50;59.40;;;;;;4955747;28;20480;-19
2022/01/26 13:01:25;;;;;;;6.78;5.28;;;16.50;60.20;;;;;;4946335;28;20085;-20
2022/01/26 13:03:55;;;;;;;7.40;5.93;;;16.50;60.50;;;;;;4937447;28;20079;-20
2022/01/26 13:06:23;;;;;;;5.88;5.32;;;16.60;60.30;;;;;;4947014;28;20063;-19
2022/01/26 13:08:49;;;;;;;6.47;4.70;;;16.60;60.30;;;;;;4957876;28;20063;-19
2022/01/26 13:11:28;;;;;;;5.43;4.93;;;16.50;60.20;;;;;;4940429;28;20503;-21
2022/01/26 13:14:37;;;;;;;7.50;5.20;;;16.60;60.30;;;;;;4938019;28;20067;-19
2022/01/26 13:20:22;;;;;;;5.78;4.40;;;16.60;59.80;;;;;;4952809;28;20048;-21
2022/01/26 13:44:38;;;;;;;5.18;4.78;;;16.60;59.10;;;;;;4949135;28;20077;-20
2022/01/26 13:50:20;;;;;;;7.00;5.47;;;16.70;59.00;;;;;;4952673;28;20130;-21
2022/01/26 13:52:36;;;;;;;5.25;4.85;;;16.70;58.70;;;;;;4944420;28;20075;-20
2022/01/26 14:00:06;;;;;;;5.30;4.80;;;16.70;58.80;;;;;;4951511;28;20099;-20
2022/01/26 14:02:33;;;;;;;5.35;4.85;;;16.70;59.00;;;;;;4938086;28;20051;-22
2022/01/26 14:04:58;;;;;;;5.40;4.90;;;16.70;58.80;;;;;;4937323;28;20055;-20
2022/01/26 14:07:24;;;;;;;5.45;5.03;;;16.70;58.80;;;;;;4937767;28;20048;-20
2022/01/26 14:09:49;;;;;;;5.00;4.60;;;16.70;58.70;;;;;;4937695;28;20050;-20
2022/01/26 14:12:20;;;;;;;4.95;4.57;;;16.80;58.80;;;;;;4937124;28;20067;-21
2022/01/26 14:14:51;;;;;;;5.07;4.68;;;16.80;58.70;;;;;;4937698;28;20055;-21
2022/01/26 14:17:26;;;;;;;5.00;4.70;;;16.80;58.70;;;;;;4941056;28;20146;-20
2022/01/26 14:20:09;;;;;;;4.82;4.43;;;16.80;58.70;;;;;;4941825;28;20102;-19
2022/01/26 14:27:53;;;;;;;4.68;4.38;;;16.80;58.80;;;;;;4941562;28;20054;-20
2022/01/26 14:35:52;;;;;;;4.80;4.40;;;16.80;58.70;;;;;;4948666;28;20062;-20
2022/01/26 14:54:26;;;;;;;4.93;4.63;;;16.90;58.90;;;;;;4939374;28;20044;-20
2022/01/26 15:35:23;;;;;;;4.68;4.28;;;17.00;58.60;;;;;;4957902;28;20069;-20
2022/01/26 15:40:48;;;;;;;4.07;3.88;;;17.10;58.40;;;;;;4951046;28;20083;-19
2022/01/26 15:49:31;;;;;;;5.80;5.30;;;17.10;58.70;;;;;;4958309;28;20054;-20
2022/01/26 16:04:17;;;;;;;10.65;8.52;;;17.00;59.10;;;;;;4945834;28;20043;-20
2022/01/26 16:07:24;;;;;;;16.30;12.48;;;17.00;59.40;;;;;;4957317;28;20047;-19
2022/01/26 16:12:55;;;;;;;15.07;11.55;;;17.10;59.30;;;;;;4941064;28;20192;-19
2022/01/26 16:21:21;;;;;;;16.30;11.52;;;17.10;59.20;;;;;;4957714;28;20102;-20
2022/01/26 16:37:47;;;;;;;12.93;10.82;;;17.00;59.40;;;;;;4939215;28;20062;-21
2022/01/26 17:43:13;;;;;;;;;;;17.10;59.90;;;;;;4956350;28;20408;-20
2022/01/26 18:07:23;;;;;;;7.43;6.72;;;17.00;60.00;;;;;;4956312;28;20046;-19
2022/01/26 18:15:30;;;;;;;7.65;6.93;;;17.00;59.80;;;;;;4938061;28;20188;-21
2022/01/26 18:49:38;;;;;;;7.40;6.32;;;16.80;59.80;;;;;;4951644;28;20035;-19
2022/01/26 18:52:04;;;;;;;6.38;5.78;;;16.80;60.10;;;;;;4952701;28;20513;-20
2022/01/26 18:54:32;;;;;;;7.43;6.75;;;16.80;59.90;;;;;;4941905;28;20052;-19
2022/01/26 18:56:59;;;;;;;8.25;6.38;;;16.80;59.80;;;;;;4948761;28;20571;-20
2022/01/26 18:59:24;;;;;;;10.80;7.65;;;16.80;59.60;;;;;;4606761;28;10000420;-20
2022/01/26 19:01:54;;;;;;;13.35;8.20;;;16.80;59.50;;;;;;4952079;28;20065;-20
2022/01/26 19:04:26;;;;;;;10.57;7.60;;;16.90;59.50;;;;;;4955749;28;20039;-19
2022/01/26 19:06:54;;;;;;;13.77;7.88;;;16.90;59.50;;;;;;4954974;28;20047;-19
2022/01/26 19:09:23;;;;;;;18.70;8.40;;;16.90;60.20;;;;;;4951804;28;20031;-19
2022/01/26 19:11:49;;;;;;;22.30;9.27;;;16.90;62.30;;;;;;4968317;28;20047;-20
2022/01/26 19:14:15;;;;;;;15.63;8.02;;;16.90;63.20;;;;;;4955180;28;20047;-20
2022/01/26 19:16:53;;;;;;;13.07;8.40;;;17.00;63.00;;;;;;4955838;28;20051;-20
2022/01/26 19:24:50;;;;;;;13.13;7.53;;;16.90;62.50;;;;;;4956669;28;20048;-19